sensor_id;sensor_type;location;lat;lon;timestamp;temperature;humidity
12845;DHT22;68700;48.534;9.196;2024-03-06T00:01:03;5.60;99.90
12845;DHT22;68700;48.534;9.196;2024-03-06T00:04:25;5.70;99.90
12845;DHT22;68700;48.534;9.196;2024-03-06T00:07:48;5.60;99.90
12845;DHT22;68700;48.534;9.196;2024-03-06T00:11:10;5.60;99.90
12845;DHT22;68700;48.534;9.196;2024-03-06T00:14:32;5.60;99.90
12845;DHT22;68700;48.534;9.196;2024-03-06T00:17:56;5.60;99.90
12845;DHT22;68700;48.534;9.196;2024-03-06T00:21:19;5.50;99.90
12845;DHT22;68700;48.534;9.196;2024-03-06T00:24:42;5.50;99.90
12845;DHT22;68700;48.534;9.196;2024-03-06T00:28:04;5.50;99.90
12845;DHT22;68700;48.534;9.196;2024-03-06T00:31:26;5.60;99.90
12845;DHT22;68700;48.534;9.196;2024-03-06T00:34:48;5.50;99.90
12845;DHT22;68700;48.534;9.196;2024-03-06T00:38:10;5.40;99.90
12845;DHT22;68700;48.534;9.196;2024-03-06T00:41:33;5.40;99.90
12845;DHT22;68700;48.534;9.196;2024-03-06T00:44:56;5.40;99.90
12845;DHT22;68700;48.534;9.196;2024-03-06T00:48:17;5.40;99.90
12845;DHT22;68700;48.534;9.196;2024-03-06T00:51:40;5.40;99.90
12845;DHT22;68700;48.534;9.196;2024-03-06T00:55:02;5.30;99.90
12845;DHT22;68700;48.534;9.196;2024-03-06T00:58:27;5.30;99.90
12845;DHT22;68700;48.534;9.196;2024-03-06T01:01:49;5.30;99.90
12845;DHT22;68700;48.534;9.196;2024-03-06T01:05:10;5.20;99.90
12845;DHT22;68700;48.534;9.196;2024-03-06T01:08:32;5.20;99.90
12845;DHT22;68700;48.534;9.196;2024-03-06T01:11:54;5.20;99.90
12845;DHT22;68700;48.534;9.196;2024-03-06T01:15:18;5.10;99.90
12845;DHT22;68700;48.534;9.196;2024-03-06T01:18:39;5.10;99.90
12845;DHT22;68700;48.534;9.196;2024-03-06T01:22:01;5.10;99.90
12845;DHT22;68700;48.534;9.196;2024-03-06T01:25:23;5.10;99.90
12845;DHT22;68700;48.534;9.196;2024-03-06T01:28:45;5.10;99.90
12845;DHT22;68700;48.534;9.196;2024-03-06T01:32:08;5.00;99.90
12845;DHT22;68700;48.534;9.196;2024-03-06T01:35:30;5.00;99.90
12845;DHT22;68700;48.534;9.196;2024-03-06T01:38:52;5.00;99.90
12845;DHT22;68700;48.534;9.196;2024-03-06T01:42:16;5.00;1.00
12845;DHT22;68700;48.534;9.196;2024-03-06T01:45:38;5.00;1.00
12845;DHT22;68700;48.534;9.196;2024-03-06T01:49:01;5.00;1.00
12845;DHT22;68700;48.534;9.196;2024-03-06T01:52:24;5.00;1.00
12845;DHT22;68700;48.534;9.196;2024-03-06T01:55:48;5.00;1.00
12845;DHT22;68700;48.534;9.196;2024-03-06T01:59:10;5.00;1.00
12845;DHT22;68700;48.534;9.196;2024-03-06T02:02:32;5.00;1.00
12845;DHT22;68700;48.534;9.196;2024-03-06T02:05:56;4.90;1.00
12845;DHT22;68700;48.534;9.196;2024-03-06T02:09:19;4.90;1.00
12845;DHT22;68700;48.534;9.196;2024-03-06T02:12:41;4.90;1.00
12845;DHT22;68700;48.534;9.196;2024-03-06T02:16:04;5.00;1.00
12845;DHT22;68700;48.534;9.196;2024-03-06T02:19:37;4.90;1.00
12845;DHT22;68700;48.534;9.196;2024-03-06T02:23:01;4.90;1.00
12845;DHT22;68700;48.534;9.196;2024-03-06T02:26:23;4.90;1.00
12845;DHT22;68700;48.534;9.196;2024-03-06T02:29:45;4.80;1.00
12845;DHT22;68700;48.534;9.196;2024-03-06T02:33:07;4.70;1.00
12845;DHT22;68700;48.534;9.196;2024-03-06T02:36:29;4.70;1.00
12845;DHT22;68700;48.534;9.196;2024-03-06T02:39:54;4.70;1.00
12845;DHT22;68700;48.534;9.196;2024-03-06T02:43:16;4.70;1.00
12845;DHT22;68700;48.534;9.196;2024-03-06T02:46:37;4.70;1.00
12845;DHT22;68700;48.534;9.196;2024-03-06T02:49:59;4.70;1.00
12845;DHT22;68700;48.534;9.196;2024-03-06T02:53:21;4.70;1.00
12845;DHT22;68700;48.534;9.196;2024-03-06T02:56:44;4.80;1.00
12845;DHT22;68700;48.534;9.196;2024-03-06T03:00:07;4.80;1.00
12845;DHT22;68700;48.534;9.196;2024-03-06T03:03:33;4.80;1.00
12845;DHT22;68700;48.534;9.196;2024-03-06T03:06:55;4.80;1.00
12845;DHT22;68700;48.534;9.196;2024-03-06T03:10:19;4.80;1.00
12845;DHT22;68700;48.534;9.196;2024-03-06T03:13:42;4.70;1.00
12845;DHT22;68700;48.534;9.196;2024-03-06T03:17:04;4.80;1.00
12845;DHT22;68700;48.534;9.196;2024-03-06T03:20:27;4.80;1.00
12845;DHT22;68700;48.534;9.196;2024-03-06T03:23:48;4.90;1.00
12845;DHT22;68700;48.534;9.196;2024-03-06T03:27:10;4.80;1.00
12845;DHT22;68700;48.534;9.196;2024-03-06T03:30:36;4.90;1.00
12845;DHT22;68700;48.534;9.196;2024-03-06T03:33:58;4.90;1.00
12845;DHT22;68700;48.534;9.196;2024-03-06T03:37:20;4.90;1.00
12845;DHT22;68700;48.534;9.196;2024-03-06T03:40:42;4.80;1.00
12845;DHT22;68700;48.534;9.196;2024-03-06T03:44:04;4.80;1.00
12845;DHT22;68700;48.534;9.196;2024-03-06T03:47:27;4.90;1.00
12845;DHT22;68700;48.534;9.196;2024-03-06T03:50:49;4.80;1.00
12845;DHT22;68700;48.534;9.196;2024-03-06T03:54:11;4.90;1.00
12845;DHT22;68700;48.534;9.196;2024-03-06T03:57:32;4.80;1.00
12845;DHT22;68700;48.534;9.196;2024-03-06T04:00:54;4.80;1.00
12845;DHT22;68700;48.534;9.196;2024-03-06T04:04:18;4.80;1.00
12845;DHT22;68700;48.534;9.196;2024-03-06T04:07:39;4.80;1.00
12845;DHT22;68700;48.534;9.196;2024-03-06T04:11:01;4.80;1.00
12845;DHT22;68700;48.534;9.196;2024-03-06T04:14:23;4.80;1.00
12845;DHT22;68700;48.534;9.196;2024-03-06T04:17:46;4.80;1.00
12845;DHT22;68700;48.534;9.196;2024-03-06T04:21:09;4.80;1.00
12845;DHT22;68700;48.534;9.196;2024-03-06T04:24:31;4.80;1.00
12845;DHT22;68700;48.534;9.196;2024-03-06T04:27:53;4.80;1.00
12845;DHT22;68700;48.534;9.196;2024-03-06T04:31:15;4.80;1.00
12845;DHT22;68700;48.534;9.196;2024-03-06T04:34:37;4.90;1.00
12845;DHT22;68700;48.534;9.196;2024-03-06T04:38:01;4.80;1.00
12845;DHT22;68700;48.534;9.196;2024-03-06T04:41:24;4.90;1.00
12845;DHT22;68700;48.534;9.196;2024-03-06T04:44:46;4.90;1.00
12845;DHT22;68700;48.534;9.196;2024-03-06T04:48:08;4.90;1.00
12845;DHT22;68700;48.534;9.196;2024-03-06T04:51:30;4.90;1.00
12845;DHT22;68700;48.534;9.196;2024-03-06T04:54:53;4.90;1.00
12845;DHT22;68700;48.534;9.196;2024-03-06T04:58:15;4.90;1.00
12845;DHT22;68700;48.534;9.196;2024-03-06T05:01:36;4.90;1.00
12845;DHT22;68700;48.534;9.196;2024-03-06T05:04:58;4.90;1.00
12845;DHT22;68700;48.534;9.196;2024-03-06T05:08:21;5.00;1.00
12845;DHT22;68700;48.534;9.196;2024-03-06T05:11:44;5.00;1.00
12845;DHT22;68700;48.534;9.196;2024-03-06T05:15:06;5.00;1.00
12845;DHT22;68700;48.534;9.196;2024-03-06T05:18:28;5.00;1.00
12845;DHT22;68700;48.534;9.196;2024-03-06T05:21:50;4.90;1.00
12845;DHT22;68700;48.534;9.196;2024-03-06T05:25:12;5.00;1.00
12845;DHT22;68700;48.534;9.196;2024-03-06T05:28:35;5.00;1.00
12845;DHT22;68700;48.534;9.196;2024-03-06T05:31:58;4.90;1.00
12845;DHT22;68700;48.534;9.196;2024-03-06T05:35:20;5.00;1.00
12845;DHT22;68700;48.534;9.196;2024-03-06T05:38:42;5.00;1.00
12845;DHT22;68700;48.534;9.196;2024-03-06T05:42:05;4.90;1.00
12845;DHT22;68700;48.534;9.196;2024-03-06T05:45:28;4.90;1.00
12845;DHT22;68700;48.534;9.196;2024-03-06T05:48:50;4.90;1.00
12845;DHT22;68700;48.534;9.196;2024-03-06T05:52:12;4.90;1.00
12845;DHT22;68700;48.534;9.196;2024-03-06T05:55:34;4.90;1.00
12845;DHT22;68700;48.534;9.196;2024-03-06T05:58:56;4.90;1.00
12845;DHT22;68700;48.534;9.196;2024-03-06T06:02:19;4.90;1.00
12845;DHT22;68700;48.534;9.196;2024-03-06T06:05:41;4.90;1.00
12845;DHT22;68700;48.534;9.196;2024-03-06T06:09:03;4.90;1.00
12845;DHT22;68700;48.534;9.196;2024-03-06T06:12:26;4.90;1.00
12845;DHT22;68700;48.534;9.196;2024-03-06T06:15:48;4.90;1.00
12845;DHT22;68700;48.534;9.196;2024-03-06T06:19:11;4.90;1.00
12845;DHT22;68700;48.534;9.196;2024-03-06T06:22:33;4.90;1.00
12845;DHT22;68700;48.534;9.196;2024-03-06T06:25:55;5.00;1.00
12845;DHT22;68700;48.534;9.196;2024-03-06T06:29:18;5.00;1.00
12845;DHT22;68700;48.534;9.196;2024-03-06T06:32:40;5.00;1.00
12845;DHT22;68700;48.534;9.196;2024-03-06T06:36:04;5.10;1.00
12845;DHT22;68700;48.534;9.196;2024-03-06T06:39:26;5.10;1.00
12845;DHT22;68700;48.534;9.196;2024-03-06T06:42:49;5.10;1.00
12845;DHT22;68700;48.534;9.196;2024-03-06T06:46:11;5.10;1.00
12845;DHT22;68700;48.534;9.196;2024-03-06T06:49:33;5.10;1.00
12845;DHT22;68700;48.534;9.196;2024-03-06T06:52:56;5.10;1.00
12845;DHT22;68700;48.534;9.196;2024-03-06T06:56:20;5.10;1.00
12845;DHT22;68700;48.534;9.196;2024-03-06T06:59:44;5.10;1.00
12845;DHT22;68700;48.534;9.196;2024-03-06T07:03:06;5.10;1.00
12845;DHT22;68700;48.534;9.196;2024-03-06T07:06:28;5.20;1.00
12845;DHT22;68700;48.534;9.196;2024-03-06T07:09:51;5.20;1.00
12845;DHT22;68700;48.534;9.196;2024-03-06T07:13:13;5.20;1.00
12845;DHT22;68700;48.534;9.196;2024-03-06T07:16:41;5.20;1.00
12845;DHT22;68700;48.534;9.196;2024-03-06T07:20:05;5.20;1.00
12845;DHT22;68700;48.534;9.196;2024-03-06T07:23:29;5.30;1.00
12845;DHT22;68700;48.534;9.196;2024-03-06T07:26:52;5.30;1.00
12845;DHT22;68700;48.534;9.196;2024-03-06T07:30:14;5.40;1.00
12845;DHT22;68700;48.534;9.196;2024-03-06T07:33:36;5.50;1.00
12845;DHT22;68700;48.534;9.196;2024-03-06T07:36:59;5.40;1.00
12845;DHT22;68700;48.534;9.196;2024-03-06T07:40:21;5.40;1.00
12845;DHT22;68700;48.534;9.196;2024-03-06T07:43:44;5.50;1.00
12845;DHT22;68700;48.534;9.196;2024-03-06T07:47:06;5.60;1.00
12845;DHT22;68700;48.534;9.196;2024-03-06T07:50:29;5.60;1.00
12845;DHT22;68700;48.534;9.196;2024-03-06T07:53:51;5.60;1.00
12845;DHT22;68700;48.534;9.196;2024-03-06T07:57:12;5.60;1.00
12845;DHT22;68700;48.534;9.196;2024-03-06T08:00:36;5.60;1.00
12845;DHT22;68700;48.534;9.196;2024-03-06T08:03:59;5.70;1.00
12845;DHT22;68700;48.534;9.196;2024-03-06T08:07:20;5.90;1.00
12845;DHT22;68700;48.534;9.196;2024-03-06T08:10:42;5.90;1.00
12845;DHT22;68700;48.534;9.196;2024-03-06T08:14:06;6.00;1.00
12845;DHT22;68700;48.534;9.196;2024-03-06T08:17:29;6.00;1.00
12845;DHT22;68700;48.534;9.196;2024-03-06T08:20:51;6.00;1.00
12845;DHT22;68700;48.534;9.196;2024-03-06T08:24:13;6.00;1.00
12845;DHT22;68700;48.534;9.196;2024-03-06T08:27:36;6.00;1.00
12845;DHT22;68700;48.534;9.196;2024-03-06T08:31:00;6.00;1.00
12845;DHT22;68700;48.534;9.196;2024-03-06T08:34:23;6.00;1.00
12845;DHT22;68700;48.534;9.196;2024-03-06T08:37:45;6.00;99.90
12845;DHT22;68700;48.534;9.196;2024-03-06T08:41:07;6.20;1.00
12845;DHT22;68700;48.534;9.196;2024-03-06T08:44:29;6.30;1.00
12845;DHT22;68700;48.534;9.196;2024-03-06T08:47:51;6.40;1.00
12845;DHT22;68700;48.534;9.196;2024-03-06T08:51:15;6.40;99.90
12845;DHT22;68700;48.534;9.196;2024-03-06T08:54:37;6.40;99.90
12845;DHT22;68700;48.534;9.196;2024-03-06T08:57:59;6.50;99.90
12845;DHT22;68700;48.534;9.196;2024-03-06T09:01:21;6.60;99.90
12845;DHT22;68700;48.534;9.196;2024-03-06T09:04:43;6.60;99.90
12845;DHT22;68700;48.534;9.196;2024-03-06T09:08:07;6.70;99.90
12845;DHT22;68700;48.534;9.196;2024-03-06T09:11:29;6.70;99.90
12845;DHT22;68700;48.534;9.196;2024-03-06T09:14:51;6.80;99.90
12845;DHT22;68700;48.534;9.196;2024-03-06T09:18:13;6.70;99.90
12845;DHT22;68700;48.534;9.196;2024-03-06T09:21:37;6.80;99.90
12845;DHT22;68700;48.534;9.196;2024-03-06T09:25:00;6.80;99.90
12845;DHT22;68700;48.534;9.196;2024-03-06T09:28:22;6.90;99.90
12845;DHT22;68700;48.534;9.196;2024-03-06T09:31:44;7.00;99.90
12845;DHT22;68700;48.534;9.196;2024-03-06T09:35:06;6.80;99.90
12845;DHT22;68700;48.534;9.196;2024-03-06T09:38:28;6.90;99.90
12845;DHT22;68700;48.534;9.196;2024-03-06T09:41:52;6.90;99.90
12845;DHT22;68700;48.534;9.196;2024-03-06T09:45:16;6.90;99.90
12845;DHT22;68700;48.534;9.196;2024-03-06T09:48:45;6.90;99.90
12845;DHT22;68700;48.534;9.196;2024-03-06T09:52:07;6.90;99.90
12845;DHT22;68700;48.534;9.196;2024-03-06T09:55:31;6.80;99.90
12845;DHT22;68700;48.534;9.196;2024-03-06T09:58:55;6.80;99.90
12845;DHT22;68700;48.534;9.196;2024-03-06T10:02:23;6.90;99.90
12845;DHT22;68700;48.534;9.196;2024-03-06T10:05:50;7.00;99.90
12845;DHT22;68700;48.534;9.196;2024-03-06T10:09:12;7.10;99.90
12845;DHT22;68700;48.534;9.196;2024-03-06T10:12:34;7.10;99.90
12845;DHT22;68700;48.534;9.196;2024-03-06T10:15:59;7.10;99.90
12845;DHT22;68700;48.534;9.196;2024-03-06T10:19:22;7.10;99.90
12845;DHT22;68700;48.534;9.196;2024-03-06T10:22:44;7.10;99.90
12845;DHT22;68700;48.534;9.196;2024-03-06T10:26:07;6.90;99.90
12845;DHT22;68700;48.534;9.196;2024-03-06T10:29:29;6.90;99.90
12845;DHT22;68700;48.534;9.196;2024-03-06T10:32:53;6.90;99.90
12845;DHT22;68700;48.534;9.196;2024-03-06T10:36:15;6.90;99.90
12845;DHT22;68700;48.534;9.196;2024-03-06T10:39:41;7.00;99.90
12845;DHT22;68700;48.534;9.196;2024-03-06T10:43:05;7.00;99.90
12845;DHT22;68700;48.534;9.196;2024-03-06T10:46:27;7.10;99.90
12845;DHT22;68700;48.534;9.196;2024-03-06T10:49:51;7.20;99.90
12845;DHT22;68700;48.534;9.196;2024-03-06T10:53:16;7.10;99.90
12845;DHT22;68700;48.534;9.196;2024-03-06T10:56:39;7.10;99.90
12845;DHT22;68700;48.534;9.196;2024-03-06T11:00:03;7.10;99.90
12845;DHT22;68700;48.534;9.196;2024-03-06T11:03:27;7.10;99.90
12845;DHT22;68700;48.534;9.196;2024-03-06T11:06:52;7.10;99.90
12845;DHT22;68700;48.534;9.196;2024-03-06T11:10:30;7.10;99.90
12845;DHT22;68700;48.534;9.196;2024-03-06T11:13:55;6.90;99.90
12845;DHT22;68700;48.534;9.196;2024-03-06T11:17:25;7.00;99.90
12845;DHT22;68700;48.534;9.196;2024-03-06T11:20:48;7.00;99.90
12845;DHT22;68700;48.534;9.196;2024-03-06T11:24:15;6.90;99.90
12845;DHT22;68700;48.534;9.196;2024-03-06T11:28:04;6.90;99.90
12845;DHT22;68700;48.534;9.196;2024-03-06T11:31:30;7.00;99.90
12845;DHT22;68700;48.534;9.196;2024-03-06T11:34:52;7.00;99.90
12845;DHT22;68700;48.534;9.196;2024-03-06T11:38:16;6.80;99.90
12845;DHT22;68700;48.534;9.196;2024-03-06T11:41:48;7.00;99.90
12845;DHT22;68700;48.534;9.196;2024-03-06T11:45:16;7.10;99.90
12845;DHT22;68700;48.534;9.196;2024-03-06T11:48:41;7.00;99.90
12845;DHT22;68700;48.534;9.196;2024-03-06T11:52:05;7.00;99.90
12845;DHT22;68700;48.534;9.196;2024-03-06T11:55:28;7.00;99.90
12845;DHT22;68700;48.534;9.196;2024-03-06T11:58:53;7.00;99.90
12845;DHT22;68700;48.534;9.196;2024-03-06T12:02:15;7.10;99.90
12845;DHT22;68700;48.534;9.196;2024-03-06T12:05:37;7.10;99.90
12845;DHT22;68700;48.534;9.196;2024-03-06T12:08:59;7.10;99.90
12845;DHT22;68700;48.534;9.196;2024-03-06T12:12:20;7.10;99.90
12845;DHT22;68700;48.534;9.196;2024-03-06T12:15:44;7.10;99.90
12845;DHT22;68700;48.534;9.196;2024-03-06T12:19:06;7.20;99.90
12845;DHT22;68700;48.534;9.196;2024-03-06T12:22:30;7.10;99.90
12845;DHT22;68700;48.534;9.196;2024-03-06T12:26:05;7.10;99.90
12845;DHT22;68700;48.534;9.196;2024-03-06T12:29:30;7.10;99.90
12845;DHT22;68700;48.534;9.196;2024-03-06T12:33:00;7.10;99.90
12845;DHT22;68700;48.534;9.196;2024-03-06T12:36:25;7.20;99.90
12845;DHT22;68700;48.534;9.196;2024-03-06T12:39:47;7.30;99.90
12845;DHT22;68700;48.534;9.196;2024-03-06T12:43:09;7.30;99.90
12845;DHT22;68700;48.534;9.196;2024-03-06T12:46:31;7.30;99.90
12845;DHT22;68700;48.534;9.196;2024-03-06T12:49:54;7.30;99.90
12845;DHT22;68700;48.534;9.196;2024-03-06T12:53:16;7.20;99.90
12845;DHT22;68700;48.534;9.196;2024-03-06T12:56:39;7.40;99.90
12845;DHT22;68700;48.534;9.196;2024-03-06T13:00:02;7.40;99.90
12845;DHT22;68700;48.534;9.196;2024-03-06T13:03:27;7.40;99.90
12845;DHT22;68700;48.534;9.196;2024-03-06T13:06:50;7.30;99.90
12845;DHT22;68700;48.534;9.196;2024-03-06T13:10:12;7.40;99.90
12845;DHT22;68700;48.534;9.196;2024-03-06T13:13:34;7.40;99.90
12845;DHT22;68700;48.534;9.196;2024-03-06T13:16:56;7.40;99.90
12845;DHT22;68700;48.534;9.196;2024-03-06T13:20:18;7.50;99.90
12845;DHT22;68700;48.534;9.196;2024-03-06T13:23:41;7.40;99.90
12845;DHT22;68700;48.534;9.196;2024-03-06T13:27:03;7.40;99.90
12845;DHT22;68700;48.534;9.196;2024-03-06T13:30:25;7.40;99.90
12845;DHT22;68700;48.534;9.196;2024-03-06T13:33:47;7.30;99.90
12845;DHT22;68700;48.534;9.196;2024-03-06T13:37:09;7.30;99.90
12845;DHT22;68700;48.534;9.196;2024-03-06T13:40:32;7.40;99.90
12845;DHT22;68700;48.534;9.196;2024-03-06T13:43:54;7.30;99.90
12845;DHT22;68700;48.534;9.196;2024-03-06T13:47:16;7.30;99.90
12845;DHT22;68700;48.534;9.196;2024-03-06T13:50:38;7.20;99.90
12845;DHT22;68700;48.534;9.196;2024-03-06T13:54:00;7.20;99.90
12845;DHT22;68700;48.534;9.196;2024-03-06T13:57:24;7.20;99.90
12845;DHT22;68700;48.534;9.196;2024-03-06T14:00:46;7.20;99.90
12845;DHT22;68700;48.534;9.196;2024-03-06T14:04:07;7.10;99.90
12845;DHT22;68700;48.534;9.196;2024-03-06T14:07:29;7.10;99.90
12845;DHT22;68700;48.534;9.196;2024-03-06T14:10:51;7.20;99.90
12845;DHT22;68700;48.534;9.196;2024-03-06T14:14:14;7.10;99.90
12845;DHT22;68700;48.534;9.196;2024-03-06T14:17:39;7.20;99.90
12845;DHT22;68700;48.534;9.196;2024-03-06T14:21:01;7.20;99.90
12845;DHT22;68700;48.534;9.196;2024-03-06T14:24:22;7.10;99.90
12845;DHT22;68700;48.534;9.196;2024-03-06T14:27:45;7.20;99.90
12845;DHT22;68700;48.534;9.196;2024-03-06T14:31:08;7.10;99.90
12845;DHT22;68700;48.534;9.196;2024-03-06T14:34:31;7.00;99.90
12845;DHT22;68700;48.534;9.196;2024-03-06T14:37:53;7.00;99.90
12845;DHT22;68700;48.534;9.196;2024-03-06T14:41:14;7.10;99.90
12845;DHT22;68700;48.534;9.196;2024-03-06T14:44:36;7.00;99.90
12845;DHT22;68700;48.534;9.196;2024-03-06T14:47:59;7.00;99.90
12845;DHT22;68700;48.534;9.196;2024-03-06T14:51:23;7.00;99.90
12845;DHT22;68700;48.534;9.196;2024-03-06T14:54:45;7.00;99.90
12845;DHT22;68700;48.534;9.196;2024-03-06T14:58:08;6.90;99.90
12845;DHT22;68700;48.534;9.196;2024-03-06T15:01:30;7.00;99.90
12845;DHT22;68700;48.534;9.196;2024-03-06T15:04:53;7.00;99.90
12845;DHT22;68700;48.534;9.196;2024-03-06T15:08:15;7.00;99.90
12845;DHT22;68700;48.534;9.196;2024-03-06T15:11:38;6.90;99.90
12845;DHT22;68700;48.534;9.196;2024-03-06T15:15:01;6.90;99.90
12845;DHT22;68700;48.534;9.196;2024-03-06T15:18:26;6.90;1.00
12845;DHT22;68700;48.534;9.196;2024-03-06T15:21:51;6.90;1.00
12845;DHT22;68700;48.534;9.196;2024-03-06T15:25:14;6.90;1.00
12845;DHT22;68700;48.534;9.196;2024-03-06T15:28:36;6.90;1.00
12845;DHT22;68700;48.534;9.196;2024-03-06T15:31:57;6.90;1.00
12845;DHT22;68700;48.534;9.196;2024-03-06T15:35:20;6.90;1.00
12845;DHT22;68700;48.534;9.196;2024-03-06T15:38:45;7.00;1.00
12845;DHT22;68700;48.534;9.196;2024-03-06T15:42:06;7.00;1.00
12845;DHT22;68700;48.534;9.196;2024-03-06T15:45:28;7.00;1.00
12845;DHT22;68700;48.534;9.196;2024-03-06T15:48:50;7.00;1.00
12845;DHT22;68700;48.534;9.196;2024-03-06T15:52:12;7.00;1.00
12845;DHT22;68700;48.534;9.196;2024-03-06T15:55:36;7.00;1.00
12845;DHT22;68700;48.534;9.196;2024-03-06T15:58:58;6.90;1.00
12845;DHT22;68700;48.534;9.196;2024-03-06T16:02:20;7.00;1.00
12845;DHT22;68700;48.534;9.196;2024-03-06T16:05:41;6.90;1.00
12845;DHT22;68700;48.534;9.196;2024-03-06T16:09:03;6.90;1.00
12845;DHT22;68700;48.534;9.196;2024-03-06T16:12:26;6.90;1.00
12845;DHT22;68700;48.534;9.196;2024-03-06T16:15:48;6.90;1.00
12845;DHT22;68700;48.534;9.196;2024-03-06T16:19:11;6.90;1.00
12845;DHT22;68700;48.534;9.196;2024-03-06T16:22:33;6.90;1.00
12845;DHT22;68700;48.534;9.196;2024-03-06T16:25:54;7.00;1.00
12845;DHT22;68700;48.534;9.196;2024-03-06T16:29:18;6.90;1.00
12845;DHT22;68700;48.534;9.196;2024-03-06T16:32:39;6.90;1.00
12845;DHT22;68700;48.534;9.196;2024-03-06T16:36:01;6.90;1.00
12845;DHT22;68700;48.534;9.196;2024-03-06T16:39:23;6.90;1.00
12845;DHT22;68700;48.534;9.196;2024-03-06T16:42:45;7.00;1.00
12845;DHT22;68700;48.534;9.196;2024-03-06T16:46:08;6.90;1.00
12845;DHT22;68700;48.534;9.196;2024-03-06T16:49:30;6.90;1.00
12845;DHT22;68700;48.534;9.196;2024-03-06T16:52:54;6.90;1.00
12845;DHT22;68700;48.534;9.196;2024-03-06T16:56:16;6.90;1.00
12845;DHT22;68700;48.534;9.196;2024-03-06T16:59:38;6.90;1.00
12845;DHT22;68700;48.534;9.196;2024-03-06T17:03:03;6.80;1.00
12845;DHT22;68700;48.534;9.196;2024-03-06T17:06:25;6.90;1.00
12845;DHT22;68700;48.534;9.196;2024-03-06T17:09:46;6.80;1.00
12845;DHT22;68700;48.534;9.196;2024-03-06T17:13:08;6.80;1.00
12845;DHT22;68700;48.534;9.196;2024-03-06T17:16:30;6.80;1.00
12845;DHT22;68700;48.534;9.196;2024-03-06T17:19:54;6.80;1.00
12845;DHT22;68700;48.534;9.196;2024-03-06T17:23:16;6.80;1.00
12845;DHT22;68700;48.534;9.196;2024-03-06T17:26:38;6.80;1.00
12845;DHT22;68700;48.534;9.196;2024-03-06T17:30:00;6.90;1.00
12845;DHT22;68700;48.534;9.196;2024-03-06T17:33:22;6.80;1.00
12845;DHT22;68700;48.534;9.196;2024-03-06T17:36:45;6.80;1.00
12845;DHT22;68700;48.534;9.196;2024-03-06T17:40:08;6.80;1.00
12845;DHT22;68700;48.534;9.196;2024-03-06T17:43:31;6.80;1.00
12845;DHT22;68700;48.534;9.196;2024-03-06T17:46:53;6.80;1.00
12845;DHT22;68700;48.534;9.196;2024-03-06T17:50:14;6.80;1.00
12845;DHT22;68700;48.534;9.196;2024-03-06T17:53:38;6.80;1.00
12845;DHT22;68700;48.534;9.196;2024-03-06T17:57:00;6.70;1.00
12845;DHT22;68700;48.534;9.196;2024-03-06T18:00:21;6.80;1.00
12845;DHT22;68700;48.534;9.196;2024-03-06T18:03:44;6.70;1.00
12845;DHT22;68700;48.534;9.196;2024-03-06T18:07:06;6.70;1.00
12845;DHT22;68700;48.534;9.196;2024-03-06T18:10:29;6.70;1.00
12845;DHT22;68700;48.534;9.196;2024-03-06T18:13:51;6.70;1.00
12845;DHT22;68700;48.534;9.196;2024-03-06T18:17:13;6.70;1.00
12845;DHT22;68700;48.534;9.196;2024-03-06T18:20:35;6.70;1.00
12845;DHT22;68700;48.534;9.196;2024-03-06T18:23:57;6.70;1.00
12845;DHT22;68700;48.534;9.196;2024-03-06T18:27:21;6.70;1.00
12845;DHT22;68700;48.534;9.196;2024-03-06T18:30:44;6.70;1.00
12845;DHT22;68700;48.534;9.196;2024-03-06T18:34:06;6.70;1.00
12845;DHT22;68700;48.534;9.196;2024-03-06T18:37:28;6.70;1.00
12845;DHT22;68700;48.534;9.196;2024-03-06T18:40:49;6.70;1.00
12845;DHT22;68700;48.534;9.196;2024-03-06T18:44:13;6.70;1.00
12845;DHT22;68700;48.534;9.196;2024-03-06T18:47:35;6.70;1.00
12845;DHT22;68700;48.534;9.196;2024-03-06T18:50:57;6.70;1.00
12845;DHT22;68700;48.534;9.196;2024-03-06T18:54:19;6.70;1.00
12845;DHT22;68700;48.534;9.196;2024-03-06T18:57:41;6.70;1.00
12845;DHT22;68700;48.534;9.196;2024-03-06T19:01:04;6.70;1.00
12845;DHT22;68700;48.534;9.196;2024-03-06T19:04:27;6.70;1.00
12845;DHT22;68700;48.534;9.196;2024-03-06T19:07:49;6.70;1.00
12845;DHT22;68700;48.534;9.196;2024-03-06T19:11:11;6.70;1.00
12845;DHT22;68700;48.534;9.196;2024-03-06T19:14:33;6.70;1.00
12845;DHT22;68700;48.534;9.196;2024-03-06T19:17:56;6.70;1.00
12845;DHT22;68700;48.534;9.196;2024-03-06T19:21:18;6.70;1.00
12845;DHT22;68700;48.534;9.196;2024-03-06T19:24:40;6.70;1.00
12845;DHT22;68700;48.534;9.196;2024-03-06T19:28:04;6.80;1.00
12845;DHT22;68700;48.534;9.196;2024-03-06T19:31:26;6.80;1.00
12845;DHT22;68700;48.534;9.196;2024-03-06T19:34:49;6.70;1.00
12845;DHT22;68700;48.534;9.196;2024-03-06T19:38:11;6.70;1.00
12845;DHT22;68700;48.534;9.196;2024-03-06T19:41:35;6.70;1.00
12845;DHT22;68700;48.534;9.196;2024-03-06T19:44:57;6.70;1.00
12845;DHT22;68700;48.534;9.196;2024-03-06T19:48:19;6.60;1.00
12845;DHT22;68700;48.534;9.196;2024-03-06T19:51:44;6.60;1.00
12845;DHT22;68700;48.534;9.196;2024-03-06T19:55:06;6.50;1.00
12845;DHT22;68700;48.534;9.196;2024-03-06T19:58:28;6.50;1.00
12845;DHT22;68700;48.534;9.196;2024-03-06T20:01:50;6.40;1.00
12845;DHT22;68700;48.534;9.196;2024-03-06T20:05:12;6.30;1.00
12845;DHT22;68700;48.534;9.196;2024-03-06T20:08:36;6.30;1.00
12845;DHT22;68700;48.534;9.196;2024-03-06T20:11:58;6.30;1.00
12845;DHT22;68700;48.534;9.196;2024-03-06T20:15:20;6.30;1.00
12845;DHT22;68700;48.534;9.196;2024-03-06T20:18:41;6.30;1.00
12845;DHT22;68700;48.534;9.196;2024-03-06T20:22:04;6.30;1.00
12845;DHT22;68700;48.534;9.196;2024-03-06T20:25:27;6.30;1.00
12845;DHT22;68700;48.534;9.196;2024-03-06T20:28:49;6.40;1.00
12845;DHT22;68700;48.534;9.196;2024-03-06T20:32:12;6.40;1.00
12845;DHT22;68700;48.534;9.196;2024-03-06T20:35:36;6.40;1.00
12845;DHT22;68700;48.534;9.196;2024-03-06T20:38:58;6.40;1.00
12845;DHT22;68700;48.534;9.196;2024-03-06T20:42:21;6.50;1.00
12845;DHT22;68700;48.534;9.196;2024-03-06T20:45:43;6.50;1.00
12845;DHT22;68700;48.534;9.196;2024-03-06T20:49:05;6.50;1.00
12845;DHT22;68700;48.534;9.196;2024-03-06T20:52:27;6.60;1.00
12845;DHT22;68700;48.534;9.196;2024-03-06T20:55:49;6.60;1.00
12845;DHT22;68700;48.534;9.196;2024-03-06T20:59:12;6.60;1.00
12845;DHT22;68700;48.534;9.196;2024-03-06T21:02:34;6.70;1.00
12845;DHT22;68700;48.534;9.196;2024-03-06T21:05:56;6.70;1.00
12845;DHT22;68700;48.534;9.196;2024-03-06T21:09:18;6.70;1.00
12845;DHT22;68700;48.534;9.196;2024-03-06T21:12:40;6.80;1.00
12845;DHT22;68700;48.534;9.196;2024-03-06T21:16:05;6.80;1.00
12845;DHT22;68700;48.534;9.196;2024-03-06T21:19:27;6.80;1.00
12845;DHT22;68700;48.534;9.196;2024-03-06T21:22:49;6.80;1.00
12845;DHT22;68700;48.534;9.196;2024-03-06T21:26:11;6.80;1.00
12845;DHT22;68700;48.534;9.196;2024-03-06T21:29:33;6.70;1.00
12845;DHT22;68700;48.534;9.196;2024-03-06T21:32:56;6.80;1.00
12845;DHT22;68700;48.534;9.196;2024-03-06T21:36:18;6.70;1.00
12845;DHT22;68700;48.534;9.196;2024-03-06T21:39:39;6.70;1.00
12845;DHT22;68700;48.534;9.196;2024-03-06T21:43:01;6.80;1.00
12845;DHT22;68700;48.534;9.196;2024-03-06T21:46:25;6.80;1.00
12845;DHT22;68700;48.534;9.196;2024-03-06T21:49:48;6.70;1.00
12845;DHT22;68700;48.534;9.196;2024-03-06T21:53:11;6.80;1.00